createdAt,value
2017-08-01T00:01:27.306Z,74.60
2017-08-01T00:03:55.381Z,74.50
2017-08-01T00:06:24.226Z,73.60
2017-08-01T00:08:52.324Z,72.90
2017-08-01T00:11:20.794Z,73.20
2017-08-01T00:13:49.820Z,74.20
2017-08-01T00:16:17.894Z,74.50
2017-08-01T00:18:45.982Z,75.00
2017-08-01T00:21:14.854Z,75.50
2017-08-01T00:23:42.936Z,75.10
2017-08-01T00:26:11.785Z,76.40
2017-08-01T00:28:39.918Z,76.10
2017-08-01T00:31:08.002Z,77.00
2017-08-01T00:33:36.074Z,77.70
2017-08-01T00:36:04.944Z,78.20
2017-08-01T00:38:33.413Z,78.30
2017-08-01T00:41:02.258Z,80.00
2017-08-01T00:43:30.983Z,78.90
2017-08-01T00:45:59.082Z,78.70
2017-08-01T00:48:27.198Z,78.00
2017-08-01T00:50:55.294Z,74.10
2017-08-01T00:53:23.354Z,74.90
2017-08-01T00:55:51.462Z,87.50
2017-08-01T00:58:20.294Z,90.00
2017-08-01T01:00:48.782Z,87.10
2017-08-01T01:03:17.265Z,90.20
2017-08-01T01:05:45.351Z,90.40
2017-08-01T01:08:14.210Z,87.60
2017-08-01T01:10:43.078Z,86.30
2017-08-01T01:13:11.930Z,86.40
2017-08-01T01:15:40.038Z,86.20
2017-08-01T01:18:08.926Z,85.90
2017-08-01T01:20:37.764Z,86.40
2017-08-01T01:23:05.857Z,86.60
2017-08-01T01:25:33.960Z,90.10
2017-08-01T01:28:02.799Z,89.60
2017-08-01T01:30:30.884Z,87.90
2017-08-01T01:32:58.979Z,90.80
2017-08-01T01:35:27.482Z,90.50
2017-08-01T01:37:55.592Z,92.30
2017-08-01T01:40:23.695Z,91.50
2017-08-01T01:42:51.791Z,91.40
2017-08-01T01:45:19.879Z,91.40
2017-08-01T01:47:48.003Z,91.00
2017-08-01T01:50:16.098Z,90.80
2017-08-01T01:52:44.958Z,91.90
2017-08-01T01:55:13.056Z,91.90
2017-08-01T01:57:41.143Z,92.40
2017-08-01T02:00:10.003Z,92.40
2017-08-01T02:02:38.084Z,92.30
2017-08-01T02:05:06.182Z,92.40
2017-08-01T02:07:35.023Z,92.50
2017-08-01T02:10:03.126Z,92.40
2017-08-01T02:12:31.205Z,93.00
2017-08-01T02:14:59.303Z,93.40
2017-08-01T02:17:27.405Z,93.00
2017-08-01T02:19:55.482Z,92.90
2017-08-01T02:22:23.578Z,92.90
2017-08-01T02:24:51.656Z,92.60
2017-08-01T02:27:19.762Z,92.90
2017-08-01T02:29:47.887Z,93.20
2017-08-01T02:32:16.362Z,93.20
2017-08-01T02:34:44.547Z,93.00
2017-08-01T02:37:12.683Z,93.50
2017-08-01T02:39:40.787Z,93.70
2017-08-01T02:42:08.971Z,93.10
2017-08-01T02:44:37.042Z,92.70
2017-08-01T02:47:06.627Z,93.30
2017-08-01T02:49:35.553Z,93.40
2017-08-01T02:52:05.134Z,93.80
2017-08-01T02:54:33.211Z,93.50
2017-08-01T02:57:01.383Z,93.90
2017-08-01T02:59:29.467Z,93.80
2017-08-01T03:01:57.654Z,93.70
2017-08-01T03:04:25.711Z,93.70
2017-08-01T03:06:53.819Z,93.90
2017-08-01T03:09:22.292Z,93.50
2017-08-01T03:11:50.763Z,93.60
2017-08-01T03:14:18.870Z,93.50
2017-08-01T03:16:46.942Z,93.00
2017-08-01T03:19:15.827Z,93.40
2017-08-01T03:21:44.669Z,93.30
2017-08-01T03:24:12.750Z,92.50
2017-08-01T03:26:41.251Z,92.60
2017-08-01T03:29:10.111Z,93.30
2017-08-01T03:31:38.942Z,93.60
2017-08-01T03:34:07.467Z,93.90
2017-08-01T03:36:35.514Z,93.80
2017-08-01T03:39:04.016Z,93.90
2017-08-01T03:41:32.514Z,93.40
2017-08-01T03:44:00.602Z,93.60
2017-08-01T03:46:28.703Z,93.90
2017-08-01T03:48:58.151Z,94.20
2017-08-01T03:51:26.271Z,93.90
2017-08-01T03:53:55.118Z,94.30
2017-08-01T03:56:23.199Z,94.20
2017-08-01T03:58:51.313Z,93.90
2017-08-01T04:01:19.391Z,93.80
2017-08-01T04:03:47.471Z,93.60
2017-08-01T04:06:16.015Z,93.60
2017-08-01T04:08:44.086Z,93.70
2017-08-01T04:11:12.171Z,93.50
2017-08-01T04:13:40.302Z,93.60
2017-08-01T04:16:08.383Z,92.90
2017-08-01T04:18:36.478Z,92.90
2017-08-01T04:21:04.620Z,93.50
2017-08-01T04:23:32.694Z,93.70
2017-08-01T04:26:00.779Z,93.80
2017-08-01T04:28:28.890Z,93.90
2017-08-01T04:30:57.779Z,94.10
2017-08-01T04:33:26.626Z,94.20
2017-08-01T04:35:54.707Z,93.30
2017-08-01T04:38:22.803Z,93.70
2017-08-01T04:40:51.671Z,94.00
2017-08-01T04:43:19.775Z,93.30
2017-08-01T04:45:47.886Z,93.40
2017-08-01T04:48:16.092Z,93.40
2017-08-01T04:50:44.208Z,92.80
2017-08-01T04:53:12.317Z,93.20
2017-08-01T04:55:40.418Z,93.30
2017-08-01T04:58:08.523Z,92.40
2017-08-01T05:00:37.370Z,93.30
2017-08-01T05:03:05.496Z,93.10
2017-08-01T05:05:34.331Z,92.20
2017-08-01T05:08:02.407Z,93.30
2017-08-01T05:10:30.527Z,93.50
2017-08-01T05:12:59.382Z,93.40
2017-08-01T05:15:27.456Z,92.90
2017-08-01T05:17:55.559Z,92.70
2017-08-01T05:20:23.663Z,93.10
2017-08-01T05:22:51.771Z,93.30
2017-08-01T05:25:19.875Z,93.20
2017-08-01T05:27:48.797Z,92.90
2017-08-01T05:30:16.846Z,92.80
2017-08-01T05:32:44.928Z,93.50
2017-08-01T05:35:13.813Z,93.10
2017-08-01T05:37:42.672Z,92.00
2017-08-01T05:40:10.747Z,90.80
2017-08-01T05:42:38.879Z,90.80
2017-08-01T05:45:06.959Z,89.00
2017-08-01T05:47:35.039Z,89.70
2017-08-01T05:50:03.182Z,90.10
2017-08-01T05:52:31.325Z,90.00
2017-08-01T05:55:00.157Z,90.00
2017-08-01T05:57:28.628Z,90.20
2017-08-01T05:59:56.731Z,90.30
2017-08-01T06:02:24.819Z,90.10
2017-08-01T06:04:52.935Z,86.50
2017-08-01T06:07:21.034Z,85.90
2017-08-01T06:09:49.123Z,84.80
2017-08-01T06:12:18.028Z,82.60
2017-08-01T06:14:46.892Z,82.60
2017-08-01T06:17:15.723Z,80.10
2017-08-01T06:19:44.591Z,80.00
2017-08-01T06:22:12.688Z,79.20
2017-08-01T06:24:40.818Z,77.60
2017-08-01T06:27:08.910Z,75.60
2017-08-01T06:29:36.983Z,76.50
2017-08-01T06:32:05.505Z,75.90
2017-08-01T06:34:34.341Z,74.00
2017-08-01T06:37:02.424Z,73.30
2017-08-01T06:39:30.547Z,69.70
2017-08-01T06:41:58.659Z,71.30
2017-08-01T06:44:26.739Z,70.00
2017-08-01T06:46:55.219Z,69.40
2017-08-01T06:49:23.342Z,68.80
2017-08-01T06:51:51.423Z,69.30
2017-08-01T06:54:19.503Z,67.80
2017-08-01T06:56:48.015Z,70.00
2017-08-01T06:59:16.488Z,71.40
2017-08-01T07:01:45.331Z,68.40
2017-08-01T07:04:13.426Z,65.00
2017-08-01T07:06:41.507Z,64.20
2017-08-01T07:09:10.371Z,63.70
2017-08-01T07:11:38.888Z,61.90
2017-08-01T07:14:06.961Z,62.90
2017-08-01T07:16:35.048Z,62.10
2017-08-01T07:19:03.545Z,62.00
2017-08-01T07:21:32.393Z,62.00
2017-08-01T07:24:00.487Z,63.30
2017-08-01T07:26:28.584Z,63.80
2017-08-01T07:28:57.444Z,62.10
2017-08-01T07:31:25.919Z,62.30
2017-08-01T07:33:54.427Z,61.50
2017-08-01T07:36:23.331Z,61.40
2017-08-01T07:38:51.807Z,60.20
2017-08-01T07:41:19.915Z,60.20
2017-08-01T07:43:47.994Z,59.00
2017-08-01T07:46:16.087Z,59.20
2017-08-01T07:48:44.188Z,62.30
2017-08-01T07:51:13.031Z,63.90
2017-08-01T07:53:41.144Z,63.50
2017-08-01T07:56:10.029Z,64.40
2017-08-01T07:58:38.116Z,65.10
2017-08-01T08:01:06.963Z,67.00
2017-08-01T08:03:35.076Z,65.70
2017-08-01T08:06:04.531Z,66.80
2017-08-01T08:08:32.979Z,65.10
2017-08-01T08:11:01.086Z,66.10
2017-08-01T08:13:29.183Z,65.00
2017-08-01T08:15:57.671Z,65.70
2017-08-01T08:18:26.548Z,64.30
2017-08-01T08:20:54.642Z,63.40
2017-08-01T08:23:23.511Z,62.10
2017-08-01T08:25:51.611Z,63.00
2017-08-01T08:28:20.459Z,67.20
2017-08-01T08:30:48.559Z,67.10
2017-08-01T08:33:16.644Z,66.00
2017-08-01T08:35:45.523Z,68.30
2017-08-01T08:38:13.608Z,70.20
2017-08-01T08:40:42.457Z,71.80
2017-08-01T08:43:10.551Z,73.10
2017-08-01T08:45:38.635Z,73.70
2017-08-01T08:48:06.752Z,74.40
2017-08-01T08:50:34.830Z,75.00
2017-08-01T08:53:02.907Z,74.00
2017-08-01T08:55:31.015Z,71.10
2017-08-01T08:57:59.099Z,72.00
2017-08-01T09:00:27.181Z,72.10
2017-08-01T09:02:56.038Z,71.30
2017-08-01T09:05:24.119Z,68.20
2017-08-01T09:07:52.248Z,69.60
2017-08-01T09:10:20.727Z,70.00
2017-08-01T09:12:48.811Z,70.20
2017-08-01T09:15:16.915Z,69.90
2017-08-01T09:17:45.027Z,69.20
2017-08-01T09:20:13.876Z,65.50
2017-08-01T09:22:42.726Z,63.60
2017-08-01T09:25:10.831Z,64.10
2017-08-01T09:27:39.311Z,63.10
2017-08-01T09:30:07.428Z,66.50
2017-08-01T09:32:36.275Z,61.20
2017-08-01T09:35:04.747Z,63.20
2017-08-01T09:37:32.954Z,63.90
2017-08-01T09:40:01.115Z,63.10
2017-08-01T09:42:29.199Z,62.70
2017-08-01T09:44:57.775Z,63.40
2017-08-01T09:47:26.288Z,63.40
2017-08-01T09:49:55.127Z,66.00
2017-08-01T09:52:23.599Z,64.80
2017-08-01T09:54:51.705Z,63.80
2017-08-01T09:57:19.811Z,64.80
2017-08-01T09:59:47.911Z,65.30
2017-08-01T10:02:16.396Z,63.30
2017-08-01T10:04:44.502Z,62.60
2017-08-01T10:07:12.611Z,59.80
2017-08-01T10:09:40.705Z,57.90
2017-08-01T10:12:08.779Z,56.60
2017-08-01T10:14:36.885Z,54.40
2017-08-01T10:17:04.971Z,52.70
2017-08-01T10:19:33.074Z,50.90
2017-08-01T10:22:01.201Z,48.70
2017-08-01T10:24:29.275Z,48.50
2017-08-01T10:26:57.358Z,47.60
2017-08-01T10:29:26.227Z,48.80
2017-08-01T10:31:54.307Z,51.60
2017-08-01T10:34:22.431Z,50.60
2017-08-01T10:36:50.510Z,52.70
2017-08-01T10:39:18.591Z,54.50
2017-08-01T10:41:46.699Z,55.60
2017-08-01T10:44:14.775Z,53.90
2017-08-01T10:46:42.883Z,52.00
2017-08-01T10:49:11.370Z,48.30
2017-08-01T10:51:39.488Z,49.00
2017-08-01T10:54:07.569Z,48.80
2017-08-01T10:56:35.646Z,47.70
2017-08-01T10:59:04.148Z,47.70
2017-08-01T11:01:32.986Z,47.90
2017-08-01T11:04:01.134Z,49.90
2017-08-01T11:06:29.214Z,51.60
2017-08-01T11:08:57.619Z,52.30
2017-08-01T11:11:25.714Z,52.70
2017-08-01T11:13:53.825Z,52.30
2017-08-01T11:16:21.902Z,53.00
2017-08-01T11:18:49.983Z,53.90
2017-08-01T11:21:18.096Z,55.00
2017-08-01T11:23:46.175Z,53.60
2017-08-01T11:26:14.255Z,52.10
2017-08-01T11:28:42.354Z,52.60
2017-08-01T11:31:10.852Z,51.20
2017-08-01T11:33:38.952Z,47.90
2017-08-01T11:36:07.052Z,46.40
2017-08-01T11:38:35.156Z,43.90
2017-08-01T11:41:04.032Z,44.30
2017-08-01T11:43:32.887Z,41.10
2017-08-01T11:46:01.358Z,40.50
2017-08-01T11:48:29.480Z,40.00
2017-08-01T11:50:58.328Z,40.60
2017-08-01T11:53:26.409Z,41.10
2017-08-01T11:55:54.532Z,40.70
2017-08-01T11:58:23.376Z,41.30
2017-08-01T12:00:51.459Z,42.50
2017-08-01T12:03:20.045Z,42.90
2017-08-01T12:05:48.647Z,43.70
2017-08-01T12:08:17.527Z,46.10
2017-08-01T12:10:45.613Z,45.90
2017-08-01T12:13:14.164Z,46.60
2017-08-01T12:15:43.056Z,46.70
2017-08-01T12:18:11.578Z,43.90
2017-08-01T12:20:40.427Z,42.10
2017-08-01T12:23:08.502Z,41.50
2017-08-01T12:25:36.627Z,41.40
2017-08-01T12:28:05.567Z,42.00
2017-08-01T12:30:34.144Z,42.20
2017-08-01T12:33:03.012Z,43.30
2017-08-01T12:35:31.211Z,43.10
2017-08-01T12:37:59.391Z,44.00
2017-08-01T12:40:27.563Z,45.30
2017-08-01T12:42:55.740Z,44.70
2017-08-01T12:45:24.628Z,44.70
2017-08-01T12:47:52.799Z,44.70
2017-08-01T12:50:20.979Z,45.30
2017-08-01T12:52:49.079Z,46.80
2017-08-01T12:55:18.045Z,48.60
2017-08-01T12:57:46.127Z,49.80
2017-08-01T13:00:14.292Z,50.80
2017-08-01T13:02:43.383Z,51.00
2017-08-01T13:05:11.472Z,52.20
2017-08-01T13:07:41.168Z,53.30
2017-08-01T13:10:10.772Z,55.30
2017-08-01T13:12:38.879Z,55.70
2017-08-01T13:15:07.438Z,56.40
2017-08-01T13:17:35.536Z,56.60
2017-08-01T13:20:04.423Z,58.10
2017-08-01T13:22:32.907Z,58.20
2017-08-01T13:25:01.771Z,58.80
2017-08-01T13:27:29.944Z,60.00
2017-08-01T13:29:58.787Z,60.10
2017-08-01T13:32:26.909Z,60.10
2017-08-01T13:34:54.987Z,59.50
2017-08-01T13:37:23.152Z,61.30
2017-08-01T13:39:51.331Z,62.70
2017-08-01T13:42:19.520Z,63.70
2017-08-01T13:44:48.364Z,65.00
2017-08-01T13:47:16.464Z,64.40
2017-08-01T13:49:44.548Z,68.20
2017-08-01T13:52:12.707Z,69.50
2017-08-01T13:54:40.887Z,68.50
2017-08-01T13:57:09.055Z,68.00
2017-08-01T13:59:37.227Z,67.00
2017-08-01T14:02:05.739Z,69.90
2017-08-01T14:04:34.685Z,70.90
2017-08-01T14:07:03.592Z,73.10
2017-08-01T14:09:31.763Z,68.10
2017-08-01T14:11:59.877Z,69.30
2017-08-01T14:14:28.723Z,70.00
2017-08-01T14:16:56.907Z,70.20
2017-08-01T14:19:25.799Z,71.00
2017-08-01T14:21:53.987Z,69.60
2017-08-01T14:24:22.100Z,71.70
2017-08-01T14:26:50.216Z,69.10
2017-08-01T14:29:19.898Z,70.90
2017-08-01T14:31:47.998Z,68.30
2017-08-01T14:34:16.170Z,66.10
2017-08-01T14:36:44.280Z,69.80
2017-08-01T14:39:13.238Z,69.40
2017-08-01T14:41:41.739Z,66.90
2017-08-01T14:44:09.891Z,66.80
2017-08-01T14:46:38.072Z,69.50
2017-08-01T14:49:06.151Z,68.20
2017-08-01T14:51:34.320Z,68.80
2017-08-01T14:54:02.816Z,67.60
2017-08-01T14:56:30.895Z,67.70
2017-08-01T14:58:59.811Z,69.20
2017-08-01T15:01:27.901Z,71.90
2017-08-01T15:03:55.984Z,69.50
2017-08-01T15:06:24.084Z,70.00
2017-08-01T15:08:52.562Z,69.60
2017-08-01T15:11:21.431Z,67.50
2017-08-01T15:13:51.331Z,65.10
2017-08-01T15:16:19.439Z,65.50
2017-08-01T15:18:47.515Z,68.80
2017-08-01T15:21:15.624Z,68.60
2017-08-01T15:23:44.487Z,67.20
2017-08-01T15:26:14.080Z,68.30
2017-08-01T15:28:42.196Z,67.10
2017-08-01T15:31:10.675Z,66.80
2017-08-01T15:33:39.526Z,68.90
2017-08-01T15:36:07.631Z,69.30
2017-08-01T15:38:36.499Z,70.60
2017-08-01T15:41:06.132Z,69.70
2017-08-01T15:43:34.198Z,70.10
2017-08-01T15:46:03.051Z,70.70
2017-08-01T15:48:31.543Z,70.80
2017-08-01T15:50:59.667Z,69.90
2017-08-01T15:53:27.748Z,68.10
2017-08-01T15:55:55.826Z,67.40
2017-08-01T15:58:23.938Z,66.90
2017-08-01T16:00:52.419Z,66.90
2017-08-01T16:03:20.492Z,64.10
2017-08-01T16:05:48.594Z,63.60
2017-08-01T16:08:17.075Z,63.10
2017-08-01T16:10:45.974Z,63.40
2017-08-01T16:13:14.819Z,62.00
2017-08-01T16:15:42.903Z,62.50
2017-08-01T16:18:11.044Z,65.80
2017-08-01T16:20:39.159Z,67.80
2017-08-01T16:23:07.655Z,68.30
2017-08-01T16:25:36.509Z,69.00
2017-08-01T16:28:04.618Z,67.10
2017-08-01T16:30:33.467Z,67.10
2017-08-01T16:33:01.551Z,66.10
2017-08-01T16:35:29.654Z,64.50
2017-08-01T16:37:58.498Z,64.40
2017-08-01T16:40:26.603Z,61.60
2017-08-01T16:42:54.700Z,61.70
2017-08-01T16:45:23.195Z,58.90
2017-08-01T16:47:51.299Z,56.60
2017-08-01T16:50:19.383Z,55.60
2017-08-01T16:52:47.557Z,54.90
2017-08-01T16:55:15.631Z,52.80
2017-08-01T16:57:43.720Z,53.00
2017-08-01T17:00:11.823Z,53.30
2017-08-01T17:02:39.899Z,50.30
2017-08-01T17:05:07.980Z,52.40
2017-08-01T17:07:36.506Z,52.70
2017-08-01T17:10:04.587Z,53.80
2017-08-01T17:12:33.062Z,53.60
2017-08-01T17:15:01.166Z,53.80
2017-08-01T17:17:30.070Z,53.10
2017-08-01T17:19:58.916Z,53.40
2017-08-01T17:22:27.393Z,53.30
2017-08-01T17:24:55.487Z,51.60
2017-08-01T17:27:23.964Z,51.80
2017-08-01T17:29:52.075Z,53.90
2017-08-01T17:32:20.596Z,52.30
2017-08-01T17:34:48.676Z,53.60
2017-08-01T17:37:16.847Z,53.60
2017-08-01T17:39:45.731Z,54.10
2017-08-01T17:42:14.573Z,54.00
2017-08-01T17:44:42.655Z,53.80
2017-08-01T17:47:10.759Z,52.80
2017-08-01T17:49:39.631Z,54.00
2017-08-01T17:52:07.715Z,52.80
2017-08-01T17:54:35.811Z,52.10
2017-08-01T17:57:03.896Z,53.00
2017-08-01T17:59:32.403Z,52.50
2017-08-01T18:02:00.479Z,53.90
2017-08-01T18:04:28.589Z,54.40
2017-08-01T18:06:56.674Z,53.30
2017-08-01T18:09:24.751Z,52.70
2017-08-01T18:11:52.909Z,53.30
2017-08-01T18:14:21.011Z,53.30
2017-08-01T18:16:49.100Z,53.30
2017-08-01T18:19:17.567Z,54.30
2017-08-01T18:21:46.071Z,54.10
2017-08-01T18:24:14.924Z,54.60
2017-08-01T18:26:42.998Z,54.00
2017-08-01T18:29:11.107Z,53.90
2017-08-01T18:31:39.951Z,54.30
2017-08-01T18:34:08.030Z,53.70
2017-08-01T18:36:36.485Z,53.70
2017-08-01T18:39:04.712Z,54.30
2017-08-01T18:41:33.745Z,55.30
2017-08-01T18:44:01.844Z,54.70
2017-08-01T18:46:29.923Z,55.90
2017-08-01T18:48:58.465Z,56.30
2017-08-01T18:51:26.563Z,55.70
2017-08-01T18:53:54.648Z,56.20
2017-08-01T18:56:22.746Z,55.60
2017-08-01T18:58:51.219Z,56.50
2017-08-01T19:01:19.334Z,56.40
2017-08-01T19:03:47.815Z,55.90
2017-08-01T19:06:16.659Z,56.20
2017-08-01T19:08:45.155Z,56.00
2017-08-01T19:11:14.005Z,58.60
2017-08-01T19:13:42.103Z,58.30
2017-08-01T19:16:10.955Z,58.20
2017-08-01T19:18:39.060Z,59.30
2017-08-01T19:21:07.559Z,59.10
2017-08-01T19:23:35.649Z,59.20
2017-08-01T19:26:04.531Z,59.40
2017-08-01T19:28:33.391Z,59.40
2017-08-01T19:31:01.486Z,59.00
2017-08-01T19:33:29.572Z,59.30
2017-08-01T19:35:57.667Z,60.00
2017-08-01T19:38:25.771Z,61.30
2017-08-01T19:40:53.851Z,63.50
2017-08-01T19:43:22.728Z,63.80
2017-08-01T19:45:51.571Z,64.80
2017-08-01T19:48:20.047Z,65.10
2017-08-01T19:50:48.915Z,66.50
2017-08-01T19:53:17.390Z,66.40
2017-08-01T19:55:45.503Z,67.20
2017-08-01T19:58:13.984Z,66.50
2017-08-01T20:00:42.832Z,68.30
2017-08-01T20:03:10.932Z,68.90
2017-08-01T20:05:39.806Z,68.80
2017-08-01T20:08:08.668Z,69.70
2017-08-01T20:10:36.751Z,69.70
2017-08-01T20:13:04.858Z,70.60
2017-08-01T20:15:33.730Z,69.60
2017-08-01T20:18:01.851Z,69.30
2017-08-01T20:20:29.935Z,69.30
2017-08-01T20:22:58.016Z,69.60
2017-08-01T20:25:26.119Z,70.30
2017-08-01T20:27:54.201Z,70.20
2017-08-01T20:30:22.302Z,70.70
2017-08-01T20:32:51.188Z,72.30
2017-08-01T20:35:20.039Z,72.70
2017-08-01T20:37:48.111Z,72.70
2017-08-01T20:40:16.228Z,73.20
2017-08-01T20:42:45.064Z,72.60
2017-08-01T20:45:13.163Z,72.50
2017-08-01T20:47:41.262Z,72.10
2017-08-01T20:50:09.381Z,70.40
2017-08-01T20:52:37.468Z,71.10
2017-08-01T20:55:05.549Z,72.00
2017-08-01T20:57:33.661Z,71.70
2017-08-01T21:00:01.743Z,72.80
2017-08-01T21:02:29.822Z,73.20
2017-08-01T21:04:58.039Z,73.80
2017-08-01T21:07:26.511Z,74.70
2017-08-01T21:09:54.587Z,76.10
2017-08-01T21:12:22.687Z,75.50
2017-08-01T21:14:51.555Z,75.40
2017-08-01T21:17:19.663Z,74.80
2017-08-01T21:19:47.742Z,75.20
2017-08-01T21:22:15.862Z,76.40
2017-08-01T21:24:43.955Z,76.90
2017-08-01T21:27:12.027Z,77.80
2017-08-01T21:29:40.546Z,78.00
2017-08-01T21:32:08.627Z,77.80
2017-08-01T21:34:36.717Z,78.20
2017-08-01T21:37:04.893Z,79.40
2017-08-01T21:39:33.367Z,78.50
2017-08-01T21:42:02.587Z,77.90
2017-08-01T21:44:30.691Z,76.80
2017-08-01T21:46:59.903Z,77.60
2017-08-01T21:49:28.811Z,78.30
2017-08-01T21:51:56.896Z,78.90
2017-08-01T21:54:25.747Z,76.90
2017-08-01T21:56:54.623Z,77.40
2017-08-01T21:59:22.707Z,77.70
2017-08-01T22:01:50.787Z,78.20
2017-08-01T22:04:19.667Z,79.40
2017-08-01T22:06:47.751Z,78.30
2017-08-01T22:09:16.603Z,78.90
2017-08-01T22:11:46.211Z,78.70
2017-08-01T22:14:14.311Z,78.60
2017-08-01T22:16:43.152Z,80.00
2017-08-01T22:19:12.027Z,79.50
2017-08-01T22:21:40.127Z,78.30
2017-08-01T22:24:08.971Z,77.30
2017-08-01T22:26:37.070Z,77.10
2017-08-01T22:29:05.579Z,77.80
2017-08-01T22:31:33.655Z,78.50
2017-08-01T22:34:02.503Z,78.90
2017-08-01T22:36:30.614Z,79.10
2017-08-01T22:38:58.880Z,79.20
2017-08-01T22:41:26.991Z,78.40
2017-08-01T22:43:55.859Z,79.90
2017-08-01T22:46:24.343Z,78.30
2017-08-01T22:48:52.455Z,78.50
2017-08-01T22:51:21.297Z,79.50
2017-08-01T22:53:49.471Z,79.10
2017-08-01T22:56:17.579Z,79.20
2017-08-01T22:58:46.543Z,80.20
2017-08-01T23:01:14.715Z,78.50
2017-08-01T23:03:42.796Z,77.50
2017-08-01T23:06:10.903Z,77.70
2017-08-01T23:08:39.783Z,78.60
2017-08-01T23:11:08.626Z,78.50
2017-08-01T23:13:36.707Z,77.80
2017-08-01T23:16:04.891Z,78.20
2017-08-01T23:18:33.068Z,78.10
2017-08-01T23:21:01.241Z,78.20
2017-08-01T23:23:29.351Z,78.20
2017-08-01T23:25:58.199Z,79.70
2017-08-01T23:28:27.823Z,79.80
2017-08-01T23:30:56.395Z,79.60
2017-08-01T23:33:24.563Z,79.60
2017-08-01T23:35:52.743Z,79.80
2017-08-01T23:38:20.828Z,80.50
2017-08-01T23:40:48.986Z,80.70
2017-08-01T23:43:17.571Z,80.80
2017-08-01T23:45:45.743Z,81.10
2017-08-01T23:48:13.918Z,81.20
2017-08-01T23:50:42.507Z,81.30
2017-08-01T23:53:10.983Z,81.50
2017-08-01T23:55:39.163Z,82.00
2017-08-01T23:58:07.270Z,81.60
